createdAt,value
2018-01-28T00:00:15.728Z,78.97
2018-01-28T00:01:15.446Z,79.25
2018-01-28T00:02:15.458Z,78.97
2018-01-28T00:03:15.740Z,78.88
2018-01-28T00:04:15.744Z,78.97
2018-01-28T00:05:15.756Z,78.88
2018-01-28T00:06:15.771Z,78.97
2018-01-28T00:07:15.534Z,78.78
2018-01-28T00:08:15.802Z,78.97
2018-01-28T00:09:15.839Z,78.78
2018-01-28T00:10:15.862Z,78.78
2018-01-28T00:11:15.562Z,79.06
2018-01-28T00:12:15.568Z,78.78
2018-01-28T00:13:15.610Z,79.35
2018-01-28T00:14:15.593Z,78.97
2018-01-28T00:15:15.614Z,79.16
2018-01-28T00:16:15.639Z,78.78
2018-01-28T00:17:15.650Z,78.78
2018-01-28T00:18:15.673Z,78.59
2018-01-28T00:19:15.978Z,78.88
2018-01-28T00:20:15.989Z,78.88
2018-01-28T00:21:15.991Z,78.88
2018-01-28T00:22:15.974Z,78.78
2018-01-28T00:23:15.726Z,78.88
2018-01-28T00:24:15.751Z,78.69
2018-01-28T00:25:16.045Z,78.69
2018-01-28T00:26:16.066Z,78.88
2018-01-28T00:27:15.767Z,78.59
2018-01-28T00:28:16.049Z,78.69
2018-01-28T00:29:15.816Z,78.88
2018-01-28T00:30:15.830Z,78.97
2018-01-28T00:31:16.105Z,78.78
2018-01-28T00:32:16.133Z,78.97
2018-01-28T00:33:16.151Z,78.78
2018-01-28T00:34:16.127Z,78.69
2018-01-28T00:35:16.182Z,78.88
2018-01-28T00:36:15.893Z,78.88
2018-01-28T00:37:16.211Z,78.3
2018-01-28T00:38:16.222Z,78.97
2018-01-28T00:39:16.190Z,78.97
2018-01-28T00:40:15.966Z,78.88
2018-01-28T00:41:16.249Z,78.97
2018-01-28T00:42:15.949Z,78.97
2018-01-28T00:43:16.253Z,78.78
2018-01-28T00:44:16.255Z,78.88
2018-01-28T00:45:16.304Z,78.3
2018-01-28T00:46:16.012Z,78.5
2018-01-28T00:47:16.175Z,78.69
2018-01-28T00:48:16.337Z,78.78
2018-01-28T00:49:16.058Z,78.78
2018-01-28T00:50:16.053Z,78.78
2018-01-28T00:51:16.384Z,78.78
2018-01-28T00:52:16.439Z,78.97
2018-01-28T00:53:16.382Z,78.4
2018-01-28T00:54:16.413Z,78.69
2018-01-28T00:55:16.148Z,78.97
2018-01-28T00:56:16.419Z,79.06
2018-01-28T00:57:16.420Z,78.78
2018-01-28T00:58:16.431Z,78.78
2018-01-28T00:59:16.483Z,78.78
2018-01-28T01:00:16.461Z,78.97
2018-01-28T01:01:16.525Z,78.78
2018-01-28T01:02:16.633Z,79.06
2018-01-28T01:03:16.542Z,79.06
2018-01-28T01:04:16.260Z,78.78
2018-01-28T01:05:16.522Z,78.59
2018-01-28T01:06:16.255Z,78.97
2018-01-28T01:07:16.557Z,78.69
2018-01-28T01:08:16.559Z,78.97
2018-01-28T01:09:16.582Z,78.88
2018-01-28T01:10:16.310Z,78.88
2018-01-28T01:11:16.602Z,78.88
2018-01-28T01:12:16.673Z,78.3
2018-01-28T01:13:16.638Z,78.3
2018-01-28T01:14:16.647Z,78.88
2018-01-28T01:15:16.690Z,78.78
2018-01-28T01:16:16.676Z,78.5
2018-01-28T01:17:16.686Z,78.4
2018-01-28T01:18:16.698Z,78.59
2018-01-28T01:19:16.705Z,78.59
2018-01-28T01:20:16.466Z,78.4
2018-01-28T01:21:16.767Z,78.59
2018-01-28T01:22:16.479Z,78.4
2018-01-28T01:23:16.470Z,78.4
2018-01-28T01:24:16.774Z,78.5
2018-01-28T01:25:16.507Z,78.4
2018-01-28T01:26:16.791Z,78.59
2018-01-28T01:27:16.818Z,78.59
2018-01-28T01:28:16.545Z,78.78
2018-01-28T01:29:16.581Z,78.5
2018-01-28T01:30:16.874Z,78.78
2018-01-28T01:31:16.896Z,78.4
2018-01-28T01:32:16.608Z,78.59
2018-01-28T01:33:16.632Z,78.3
2018-01-28T01:34:16.933Z,78.4
2018-01-28T01:35:16.634Z,78.3
2018-01-28T01:36:16.659Z,78.4
2018-01-28T01:37:17.730Z,78.59
2018-01-28T01:38:16.954Z,78.5
2018-01-28T01:39:16.955Z,78.5
2018-01-28T01:40:17.000Z,78.5
2018-01-28T01:41:16.714Z,78.88
2018-01-28T01:42:16.746Z,78.5
2018-01-28T01:43:16.771Z,77.92
2018-01-28T01:44:16.762Z,78.21
2018-01-28T01:45:17.063Z,78.5
2018-01-28T01:46:16.784Z,78.21
2018-01-28T01:47:17.107Z,78.3
2018-01-28T01:48:17.102Z,78.4
2018-01-28T01:49:17.083Z,78.5
2018-01-28T01:50:16.825Z,78.59
2018-01-28T01:51:16.827Z,78.11
2018-01-28T01:52:17.155Z,78.4
2018-01-28T01:53:16.885Z,78.3
2018-01-28T01:54:16.876Z,78.3
2018-01-28T01:55:17.158Z,78.11
2018-01-28T01:56:16.892Z,78.21
2018-01-28T01:57:17.194Z,78.59
2018-01-28T01:58:17.208Z,78.4
2018-01-28T01:59:16.930Z,78.4
2018-01-28T02:00:16.952Z,78.4
2018-01-28T02:01:16.969Z,78.59
2018-01-28T02:02:17.296Z,78.4
2018-01-28T02:03:16.989Z,78.11
2018-01-28T02:04:17.030Z,78.3
2018-01-28T02:05:17.376Z,78.3
2018-01-28T02:06:17.021Z,78.21
2018-01-28T02:07:17.313Z,78.4
2018-01-28T02:08:17.370Z,78.21
2018-01-28T02:09:17.373Z,78.3
2018-01-28T02:10:17.348Z,78.3
2018-01-28T02:11:17.114Z,78.21
2018-01-28T02:12:17.116Z,78.5
2018-01-28T02:13:17.110Z,78.11
2018-01-28T02:14:17.402Z,78.4
2018-01-28T02:15:17.167Z,78.02
2018-01-28T02:16:17.169Z,78.02
2018-01-28T02:17:17.160Z,78.02
2018-01-28T02:18:17.493Z,78.3
2018-01-28T02:19:17.510Z,78.11
2018-01-28T02:20:17.480Z,78.02
2018-01-28T02:21:17.489Z,78.11
2018-01-28T02:22:17.256Z,78.4
2018-01-28T02:23:17.247Z,78.3
2018-01-28T02:24:17.565Z,78.11
2018-01-28T02:25:17.573Z,78.4
2018-01-28T02:26:17.291Z,78.11
2018-01-28T02:27:17.578Z,77.92
2018-01-28T02:28:17.593Z,78.02
2018-01-28T02:29:17.624Z,78.02
2018-01-28T02:30:17.349Z,78.02
2018-01-28T02:31:17.362Z,78.02
2018-01-28T02:32:17.671Z,78.21
2018-01-28T02:33:17.396Z,77.83
2018-01-28T02:34:17.378Z,77.73
2018-01-28T02:35:17.415Z,77.64
2018-01-28T02:36:17.716Z,77.64
2018-01-28T02:37:17.426Z,77.73
2018-01-28T02:38:17.426Z,77.83
2018-01-28T02:39:17.451Z,78.02
2018-01-28T02:40:17.821Z,76.97
2018-01-28T02:41:17.479Z,77.83
2018-01-28T02:42:17.790Z,77.36
2018-01-28T02:43:17.492Z,77.73
2018-01-28T02:44:17.503Z,77.07
2018-01-28T02:45:17.797Z,77.26
2018-01-28T02:46:17.551Z,77.26
2018-01-28T02:47:17.554Z,76.97
2018-01-28T02:48:17.577Z,76.97
2018-01-28T02:49:17.599Z,76.69
2018-01-28T02:50:17.582Z,76.88
2018-01-28T02:51:17.905Z,77.17
2018-01-28T02:52:17.630Z,76.59
2018-01-28T02:53:17.942Z,76.21
2018-01-28T02:54:17.922Z,76.88
2018-01-28T02:55:17.655Z,76.4
2018-01-28T02:56:17.985Z,76.78
2018-01-28T02:57:17.951Z,76.4
2018-01-28T02:58:17.695Z,76.69
2018-01-28T02:59:18.021Z,76.31
2018-01-28T03:00:17.711Z,76.5
2018-01-28T03:01:17.743Z,76.5
2018-01-28T03:02:17.773Z,76.03
2018-01-28T03:03:17.765Z,76.4
2018-01-28T03:04:17.786Z,75.93
2018-01-28T03:05:17.794Z,76.21
2018-01-28T03:06:17.820Z,76.12
2018-01-28T03:07:18.087Z,76.5
2018-01-28T03:08:18.105Z,75.84
2018-01-28T03:09:17.861Z,76.21
2018-01-28T03:10:17.850Z,76.21
2018-01-28T03:11:17.871Z,76.21
2018-01-28T03:12:17.893Z,75.64
2018-01-28T03:13:17.875Z,75.17
2018-01-28T03:14:18.179Z,75.36
2018-01-28T03:15:18.186Z,75.36
2018-01-28T03:16:17.946Z,74.88
2018-01-28T03:17:18.212Z,75.26
2018-01-28T03:18:17.971Z,75.17
2018-01-28T03:19:18.264Z,75.36
2018-01-28T03:20:18.244Z,74.98
2018-01-28T03:21:18.012Z,74.69
2018-01-28T03:22:18.270Z,74.69
2018-01-28T03:23:18.025Z,74.79
2018-01-28T03:24:18.306Z,74.41
2018-01-28T03:25:18.040Z,74.79
2018-01-28T03:26:18.086Z,74.88
2018-01-28T03:27:18.088Z,74.51
2018-01-28T03:28:18.073Z,74.6
2018-01-28T03:29:18.102Z,74.98
2018-01-28T03:30:18.116Z,74.88
2018-01-28T03:31:18.340Z,74.98
2018-01-28T03:32:18.409Z,74.69
2018-01-28T03:33:18.500Z,74.69
2018-01-28T03:34:18.435Z,74.69
2018-01-28T03:35:18.436Z,74.69
2018-01-28T03:36:18.449Z,74.6
2018-01-28T03:37:18.503Z,74.69
2018-01-28T03:38:18.505Z,74.22
2018-01-28T03:39:18.508Z,74.41
2018-01-28T03:40:18.219Z,74.22
2018-01-28T03:41:18.544Z,74.03
2018-01-28T03:42:18.536Z,73.74
2018-01-28T03:43:18.570Z,73.93
2018-01-28T03:44:18.273Z,74.03
2018-01-28T03:45:18.284Z,73.55
2018-01-28T03:46:18.607Z,73.55
2018-01-28T03:47:18.308Z,73.65
2018-01-28T03:48:18.788Z,73.74
2018-01-28T03:49:18.630Z,73.74
2018-01-28T03:50:18.369Z,73.27
2018-01-28T03:51:18.655Z,73.08
2018-01-28T03:52:18.665Z,73.18
2018-01-28T03:53:18.699Z,73.36
2018-01-28T03:54:18.714Z,73.93
2018-01-28T03:55:18.444Z,73.93
2018-01-28T03:56:18.434Z,73.36
2018-01-28T03:57:18.459Z,73.46
2018-01-28T03:58:18.814Z,73.55
2018-01-28T03:59:18.776Z,73.55
2018-01-28T04:00:18.765Z,73.55
2018-01-28T04:01:18.510Z,73.65
2018-01-28T04:02:18.515Z,73.46
2018-01-28T04:03:18.524Z,73.55
2018-01-28T04:04:18.816Z,73.55
2018-01-28T04:05:18.878Z,73.93
2018-01-28T04:06:18.868Z,73.55
2018-01-28T04:07:18.596Z,74.03
2018-01-28T04:08:18.609Z,73.84
2018-01-28T04:09:18.616Z,74.07
2018-01-28T04:10:18.881Z,74.03
2018-01-28T04:11:18.943Z,74.12
2018-01-28T04:12:18.642Z,74.22
2018-01-28T04:13:18.964Z,73.46
2018-01-28T04:14:18.676Z,73.46
2018-01-28T04:15:18.992Z,73.93
2018-01-28T04:16:18.710Z,73.3
2018-01-28T04:17:18.974Z,73.59
2018-01-28T04:18:18.770Z,73.97
2018-01-28T04:19:19.008Z,73.59
2018-01-28T04:20:19.045Z,73.78
2018-01-28T04:21:18.747Z,73.49
2018-01-28T04:22:18.756Z,73.69
2018-01-28T04:23:18.779Z,72.89
2018-01-28T04:24:18.781Z,72.92
2018-01-28T04:25:18.816Z,73.49
2018-01-28T04:26:19.097Z,73.69
2018-01-28T04:27:19.111Z,73.27
2018-01-28T04:28:19.156Z,73.18
2018-01-28T04:29:18.845Z,73.3
2018-01-28T04:30:19.149Z,73.4
2018-01-28T04:31:18.873Z,73.69
2018-01-28T04:32:19.210Z,72.99
2018-01-28T04:33:18.928Z,72.74
2018-01-28T04:34:19.188Z,72.92
2018-01-28T04:35:19.212Z,73.59
2018-01-28T04:36:18.937Z,73.49
2018-01-28T04:37:19.233Z,73.49
2018-01-28T04:38:18.972Z,73.65
2018-01-28T04:39:19.266Z,72.99
2018-01-28T04:40:19.276Z,72.64
2018-01-28T04:41:19.310Z,73.59
2018-01-28T04:42:19.335Z,72.51
2018-01-28T04:43:19.305Z,72.99
2018-01-28T04:44:19.327Z,73.36
2018-01-28T04:45:19.332Z,72.64
2018-01-28T04:46:19.087Z,72.83
2018-01-28T04:47:19.088Z,72.64
2018-01-28T04:48:19.090Z,72.74
2018-01-28T04:49:19.123Z,73.11
2018-01-28T04:50:19.438Z,73.11
2018-01-28T04:51:19.150Z,73.59
2018-01-28T04:52:19.140Z,73.18
2018-01-28T04:53:19.164Z,73.3
2018-01-28T04:54:19.542Z,73.49
2018-01-28T04:55:19.201Z,73.02
2018-01-28T04:56:19.191Z,73.3
2018-01-28T04:57:19.236Z,73.49
2018-01-28T04:58:19.545Z,73.4
2018-01-28T04:59:19.553Z,73.4
2018-01-28T05:00:19.566Z,73.11
2018-01-28T05:01:19.256Z,73.3
2018-01-28T05:02:19.593Z,73.3
2018-01-28T05:03:19.561Z,73.02
2018-01-28T05:04:19.574Z,73.4
2018-01-28T05:05:19.330Z,73.4
2018-01-28T05:06:19.598Z,73.59
2018-01-28T05:07:19.333Z,73.59
2018-01-28T05:08:19.627Z,73.4
2018-01-28T05:09:19.651Z,73.11
2018-01-28T05:10:19.655Z,73.21
2018-01-28T05:11:19.705Z,73.02
2018-01-28T05:12:19.688Z,73.11
2018-01-28T05:13:19.700Z,73.4
2018-01-28T05:14:19.442Z,73.88
2018-01-28T05:15:19.721Z,73.59
2018-01-28T05:16:19.480Z,73.59
2018-01-28T05:17:19.741Z,73.49
2018-01-28T05:18:19.795Z,73.59
2018-01-28T05:19:19.809Z,73.59
2018-01-28T05:20:19.534Z,73.59
2018-01-28T05:21:19.797Z,73.59
2018-01-28T05:22:19.547Z,73.59
2018-01-28T05:23:19.559Z,73.69
2018-01-28T05:24:20.063Z,73.69
2018-01-28T05:25:19.589Z,73.88
2018-01-28T05:26:19.589Z,73.3
2018-01-28T05:27:19.602Z,73.59
2018-01-28T05:28:19.606Z,73.59
2018-01-28T05:29:19.896Z,73.59
2018-01-28T05:30:19.651Z,73.78
2018-01-28T05:31:19.674Z,73.97
2018-01-28T05:32:19.945Z,73.88
2018-01-28T05:33:19.961Z,73.4
2018-01-28T05:34:19.752Z,73.49
2018-01-28T05:35:19.714Z,73.69
2018-01-28T05:36:20.012Z,74.16
2018-01-28T05:37:20.011Z,74.35
2018-01-28T05:38:20.013Z,73.97
2018-01-28T05:39:20.108Z,74.44
2018-01-28T05:40:20.040Z,74.07
2018-01-28T05:41:19.793Z,74.35
2018-01-28T05:42:20.110Z,74.16
2018-01-28T05:43:19.795Z,74.92
2018-01-28T05:44:19.827Z,74.73
2018-01-28T05:45:20.144Z,74.44
2018-01-28T05:46:20.131Z,74.73
2018-01-28T05:47:19.886Z,75.02
2018-01-28T05:48:19.872Z,74.63
2018-01-28T05:49:20.164Z,74.73
2018-01-28T05:50:20.203Z,74.63
2018-01-28T05:51:20.184Z,74.63
2018-01-28T05:52:19.915Z,74.63
2018-01-28T05:53:19.959Z,75.02
2018-01-28T05:54:20.230Z,74.63
2018-01-28T05:55:20.255Z,74.54
2018-01-28T05:56:19.965Z,74.63
2018-01-28T05:57:20.038Z,75.02
2018-01-28T05:58:20.304Z,74.73
2018-01-28T05:59:20.026Z,74.92
2018-01-28T06:00:20.341Z,74.54
2018-01-28T06:01:20.040Z,74.92
2018-01-28T06:02:20.064Z,74.63
2018-01-28T06:03:20.378Z,74.82
2018-01-28T06:04:20.379Z,74.63
2018-01-28T06:05:20.448Z,74.54
2018-01-28T06:06:20.465Z,74.63
2018-01-28T06:07:20.420Z,74.73
2018-01-28T06:08:20.143Z,74.54
2018-01-28T06:09:20.132Z,74.54
2018-01-28T06:10:20.440Z,75.02
2018-01-28T06:11:20.455Z,74.35
2018-01-28T06:12:20.184Z,74.73
2018-01-28T06:13:20.217Z,74.44
2018-01-28T06:14:20.409Z,74.63
2018-01-28T06:15:20.528Z,74.54
2018-01-28T06:16:20.226Z,74.92
2018-01-28T06:17:20.520Z,74.73
2018-01-28T06:18:20.571Z,75.02
2018-01-28T06:19:20.555Z,75.02
2018-01-28T06:20:20.278Z,75.21
2018-01-28T06:21:20.612Z,75.11
2018-01-28T06:22:20.325Z,75.49
2018-01-28T06:23:20.316Z,75.4
2018-01-28T06:24:20.609Z,74.73
2018-01-28T06:25:20.669Z,75.21
2018-01-28T06:26:20.364Z,74.73
2018-01-28T06:27:20.378Z,75.3
2018-01-28T06:28:20.380Z,75.02
2018-01-28T06:29:20.716Z,75.3
2018-01-28T06:30:20.438Z,75.3
2018-01-28T06:31:20.736Z,75.59
2018-01-28T06:32:20.757Z,75.59
2018-01-28T06:33:20.446Z,75.59
2018-01-28T06:34:20.748Z,75.4
2018-01-28T06:35:20.850Z,75.4
2018-01-28T06:36:20.765Z,75.02
2018-01-28T06:37:20.811Z,75.3
2018-01-28T06:38:20.534Z,75.59
2018-01-28T06:39:20.535Z,75.59
2018-01-28T06:40:20.819Z,75.78
2018-01-28T06:41:20.830Z,75.59
2018-01-28T06:42:20.568Z,75.59
2018-01-28T06:43:20.854Z,75.59
2018-01-28T06:44:20.601Z,75.87
2018-01-28T06:45:20.881Z,75.78
2018-01-28T06:46:20.647Z,75.59
2018-01-28T06:47:20.953Z,75.59
2018-01-28T06:48:20.662Z,75.68
2018-01-28T06:49:20.676Z,75.78
2018-01-28T06:50:20.961Z,75.59
2018-01-28T06:51:21.308Z,75.59
2018-01-28T06:52:20.975Z,75.87
2018-01-28T06:53:20.705Z,75.96
2018-01-28T06:54:21.047Z,75.68
2018-01-28T06:55:20.741Z,75.87
2018-01-28T06:56:21.040Z,75.96
2018-01-28T06:57:21.038Z,75.68
2018-01-28T06:58:21.064Z,75.87
2018-01-28T06:59:21.106Z,76.25
2018-01-28T07:00:21.137Z,76.35
2018-01-28T07:01:21.104Z,76.25
2018-01-28T07:02:21.149Z,76.06
2018-01-28T07:03:20.836Z,76.16
2018-01-28T07:04:21.164Z,76.06
2018-01-28T07:05:20.884Z,76.25
2018-01-28T07:06:20.907Z,75.96
2018-01-28T07:07:20.898Z,76.06
2018-01-28T07:08:20.932Z,76.06
2018-01-28T07:09:21.204Z,76.25
2018-01-28T07:10:21.308Z,76.06
2018-01-28T07:11:20.961Z,76.25
2018-01-28T07:12:20.954Z,76.25
2018-01-28T07:13:21.288Z,76.06
2018-01-28T07:14:21.010Z,76.06
2018-01-28T07:15:21.356Z,75.96
2018-01-28T07:16:21.005Z,76.06
2018-01-28T07:17:21.017Z,76.16
2018-01-28T07:18:21.325Z,76.25
2018-01-28T07:19:21.047Z,75.78
2018-01-28T07:20:21.091Z,75.96
2018-01-28T07:21:21.396Z,75.96
2018-01-28T07:22:21.083Z,75.96
2018-01-28T07:23:21.129Z,75.96
2018-01-28T07:24:21.121Z,76.06
2018-01-28T07:25:21.186Z,76.06
2018-01-28T07:26:21.145Z,76.63
2018-01-28T07:27:21.153Z,76.54
2018-01-28T07:28:21.484Z,76.44
2018-01-28T07:29:21.460Z,76.35
2018-01-28T07:30:21.512Z,76.73
2018-01-28T07:31:21.480Z,76.73
2018-01-28T07:32:21.215Z,76.82
2018-01-28T07:33:21.226Z,75.96
2018-01-28T07:34:21.531Z,76.44
2018-01-28T07:35:21.313Z,76.82
2018-01-28T07:36:21.278Z,76.73
2018-01-28T07:37:21.290Z,76.54
2018-01-28T07:38:21.305Z,76.73
2018-01-28T07:39:21.596Z,77.11
2018-01-28T07:40:21.616Z,76.82
2018-01-28T07:41:21.343Z,76.63
2018-01-28T07:42:21.367Z,76.73
2018-01-28T07:43:21.639Z,76.73
2018-01-28T07:44:21.661Z,76.73
2018-01-28T07:45:21.419Z,76.63
2018-01-28T07:46:21.677Z,76.92
2018-01-28T07:47:21.722Z,76.82
2018-01-28T07:48:21.424Z,76.63
2018-01-28T07:49:21.448Z,76.73
2018-01-28T07:50:21.472Z,76.73
2018-01-28T07:51:21.474Z,76.73
2018-01-28T07:52:21.486Z,76.44
2018-01-28T07:53:21.772Z,76.92
2018-01-28T07:54:21.822Z,76.63
2018-01-28T07:55:21.515Z,76.73
2018-01-28T07:56:21.842Z,77.11
2018-01-28T07:57:21.562Z,77.34
2018-01-28T07:58:21.886Z,77.01
2018-01-28T07:59:21.878Z,77.2
2018-01-28T08:00:22.068Z,77.39
2018-01-28T08:01:21.911Z,77.15
2018-01-28T08:02:21.929Z,77.2
2018-01-28T08:03:21.652Z,77.34
2018-01-28T08:04:21.955Z,77.3
2018-01-28T08:05:21.681Z,77.11
2018-01-28T08:06:21.983Z,76.96
2018-01-28T08:07:21.694Z,77.05
2018-01-28T08:08:21.968Z,76.86
2018-01-28T08:09:22.020Z,77.3
2018-01-28T08:10:22.025Z,77.05
2018-01-28T08:11:21.752Z,76.96
2018-01-28T08:12:21.770Z,77.24
2018-01-28T08:13:22.076Z,77.15
2018-01-28T08:14:21.779Z,77.2
2018-01-28T08:15:22.093Z,77.15
2018-01-28T08:16:22.113Z,77.15
2018-01-28T08:17:21.806Z,77.15
2018-01-28T08:18:22.129Z,77.15
2018-01-28T08:19:22.156Z,77.15
2018-01-28T08:20:22.172Z,77.24
2018-01-28T08:21:22.179Z,76.86
2018-01-28T08:22:21.892Z,76.76
2018-01-28T08:23:22.195Z,76.86
2018-01-28T08:24:21.942Z,77.15
2018-01-28T08:25:21.932Z,77.24
2018-01-28T08:26:21.934Z,77.05
2018-01-28T08:27:21.949Z,77.05
2018-01-28T08:28:21.972Z,77.15
2018-01-28T08:29:21.998Z,77.24
2018-01-28T08:30:21.992Z,76.86
2018-01-28T08:31:22.303Z,76.86
2018-01-28T08:32:22.289Z,77.05
2018-01-28T08:33:22.366Z,77.15
2018-01-28T08:34:22.349Z,77.15
2018-01-28T08:35:22.057Z,77.15
2018-01-28T08:36:22.340Z,76.76
2018-01-28T08:37:22.401Z,77.24
2018-01-28T08:38:22.412Z,76.67
2018-01-28T08:39:22.120Z,77.05
2018-01-28T08:40:22.434Z,77.15
2018-01-28T08:41:22.136Z,77.15
2018-01-28T08:42:22.449Z,77.24
2018-01-28T08:43:22.185Z,77.24
2018-01-28T08:44:22.476Z,77.24
2018-01-28T08:45:22.210Z,77.34
2018-01-28T08:46:22.532Z,77.15
2018-01-28T08:47:22.528Z,77.34
2018-01-28T08:48:22.533Z,77.34
2018-01-28T08:49:22.267Z,77.34
2018-01-28T08:50:22.537Z,77.24
2018-01-28T08:51:22.260Z,76.86
2018-01-28T08:52:22.294Z,76.86
2018-01-28T08:53:22.576Z,76.67
2018-01-28T08:54:22.582Z,76.67
2018-01-28T08:55:22.602Z,76.67
2018-01-28T08:56:22.610Z,77.05
2018-01-28T08:57:22.373Z,77.47
2018-01-28T08:58:22.645Z,77.24
2018-01-28T08:59:22.706Z,77.15
2018-01-28T09:00:22.666Z,77.19
2018-01-28T09:01:22.395Z,77.19
2018-01-28T09:02:22.409Z,77.37
2018-01-28T09:03:22.454Z,77.28
2018-01-28T09:04:22.446Z,77.19
2018-01-28T09:05:22.730Z,77.37
2018-01-28T09:06:22.753Z,77.28
2018-01-28T09:07:22.478Z,77.09
2018-01-28T09:08:22.523Z,77.28
2018-01-28T09:09:22.537Z,77.28
2018-01-28T09:10:22.517Z,77.56
2018-01-28T09:11:22.821Z,76.9
2018-01-28T09:12:22.856Z,76.42
2018-01-28T09:13:22.570Z,77.28
2018-01-28T09:14:22.592Z,76.52
2018-01-28T09:15:22.618Z,76.52
2018-01-28T09:16:22.634Z,76.81
2018-01-28T09:17:22.905Z,76.81
2018-01-28T09:18:22.637Z,76.9
2018-01-28T09:19:22.963Z,76.71
2018-01-28T09:20:22.980Z,76.61
2018-01-28T09:21:22.679Z,76.14
2018-01-28T09:22:22.962Z,76.33
2018-01-28T09:23:22.717Z,76.33
2018-01-28T09:24:22.992Z,76.42
2018-01-28T09:25:23.034Z,75.67
2018-01-28T09:26:23.063Z,75.67
2018-01-28T09:27:22.751Z,75.47
2018-01-28T09:28:22.794Z,75.47
2018-01-28T09:29:23.073Z,75.38
2018-01-28T09:30:23.087Z,75.38
2018-01-28T09:31:23.119Z,75.38
2018-01-28T09:32:23.146Z,75.38
2018-01-28T09:33:23.123Z,75.38
2018-01-28T09:34:23.168Z,75.38
2018-01-28T09:35:23.184Z,75.38
2018-01-28T09:36:22.886Z,75.38
2018-01-28T09:37:22.890Z,75.09
2018-01-28T09:38:23.194Z,74.62
2018-01-28T09:39:23.228Z,75.19
2018-01-28T09:40:22.931Z,74.8
2018-01-28T09:41:23.269Z,74.71
2018-01-28T09:42:23.270Z,74.62
2018-01-28T09:43:23.310Z,74.62
2018-01-28T09:44:23.313Z,75.09
2018-01-28T09:45:23.034Z,74.84
2018-01-28T09:46:23.333Z,74.71
2018-01-28T09:47:23.309Z,74.75
2018-01-28T09:48:23.066Z,74.84
2018-01-28T09:49:23.341Z,74.71
2018-01-28T09:50:23.095Z,74.46
2018-01-28T09:51:23.158Z,74.71
2018-01-28T09:52:23.383Z,74.24
2018-01-28T09:53:23.135Z,74.08
2018-01-28T09:54:23.450Z,73.99
2018-01-28T09:55:23.164Z,74.18
2018-01-28T09:56:23.508Z,74.08
2018-01-28T09:57:23.482Z,74.27
2018-01-28T09:58:23.195Z,74.37
2018-01-28T09:59:23.499Z,73.89
2018-01-28T10:00:23.556Z,74.56
2018-01-28T10:01:23.559Z,74.18
2018-01-28T10:02:23.262Z,73.7
2018-01-28T10:03:23.255Z,73.7
2018-01-28T10:04:23.562Z,73.7
2018-01-28T10:05:23.594Z,73.7
2018-01-28T10:06:23.309Z,73.99
2018-01-28T10:07:23.594Z,73.61
2018-01-28T10:08:23.607Z,73.51
2018-01-28T10:09:23.340Z,73.99
2018-01-28T10:10:23.356Z,74.08
2018-01-28T10:11:23.457Z,73.8
2018-01-28T10:12:23.396Z,73.7
2018-01-28T10:13:23.423Z,73.51
2018-01-28T10:14:23.694Z,73.51
2018-01-28T10:15:23.709Z,73.41
2018-01-28T10:16:23.721Z,73.51
2018-01-28T10:17:23.746Z,72.94
2018-01-28T10:18:23.754Z,73.41
2018-01-28T10:19:23.808Z,73.41
2018-01-28T10:20:23.821Z,73.51
2018-01-28T10:21:23.807Z,73.32
2018-01-28T10:22:23.598Z,73.32
2018-01-28T10:23:23.867Z,73.51
2018-01-28T10:24:23.578Z,73.41
2018-01-28T10:25:23.594Z,72.94
2018-01-28T10:26:23.961Z,73.41
2018-01-28T10:27:23.897Z,73.13
2018-01-28T10:28:23.896Z,73.51
2018-01-28T10:29:23.954Z,72.97
2018-01-28T10:30:23.667Z,73.07
2018-01-28T10:31:23.682Z,72.88
2018-01-28T10:32:23.996Z,73.03
2018-01-28T10:33:24.009Z,72.94
2018-01-28T10:34:24.015Z,72.78
2018-01-28T10:35:23.717Z,72.88
2018-01-28T10:36:23.755Z,72.88
2018-01-28T10:37:24.041Z,72.78
2018-01-28T10:38:24.041Z,72.78
2018-01-28T10:39:24.065Z,72.97
2018-01-28T10:40:24.106Z,73.03
2018-01-28T10:41:23.806Z,73.13
2018-01-28T10:42:24.110Z,72.6
2018-01-28T10:43:24.156Z,72.97
2018-01-28T10:44:24.172Z,73.07
2018-01-28T10:45:23.897Z,72.56
2018-01-28T10:46:24.225Z,73.07
2018-01-28T10:47:24.217Z,73.03
2018-01-28T10:48:24.188Z,72.85
2018-01-28T10:49:24.200Z,72.85
2018-01-28T10:50:24.259Z,73.03
2018-01-28T10:51:24.278Z,72.78
2018-01-28T10:52:24.301Z,72.94
2018-01-28T10:53:24.305Z,72.75
2018-01-28T10:54:23.994Z,72.88
2018-01-28T10:55:24.291Z,72.85
2018-01-28T10:56:24.353Z,72.94
2018-01-28T10:57:24.361Z,73.07
2018-01-28T10:58:24.065Z,73.03
2018-01-28T10:59:24.100Z,73.03
2018-01-28T11:00:24.407Z,72.65
2018-01-28T11:01:24.409Z,72.65
2018-01-28T11:02:24.132Z,72.85
2018-01-28T11:03:24.450Z,72.85
2018-01-28T11:04:24.154Z,73.03
2018-01-28T11:05:24.478Z,72.85
2018-01-28T11:06:24.194Z,72.85
2018-01-28T11:07:24.468Z,72.94
2018-01-28T11:08:24.489Z,72.85
2018-01-28T11:09:24.526Z,72.75
2018-01-28T11:10:24.630Z,73.03
2018-01-28T11:11:24.277Z,72.85
2018-01-28T11:12:24.538Z,72.65
2018-01-28T11:13:24.307Z,73.32
2018-01-28T11:14:24.288Z,72.85
2018-01-28T11:15:24.311Z,72.65
2018-01-28T11:16:24.628Z,73.22
2018-01-28T11:17:24.333Z,73.22
2018-01-28T11:18:24.365Z,73.13
2018-01-28T11:19:24.670Z,72.85
2018-01-28T11:20:24.388Z,73.22
2018-01-28T11:21:24.705Z,73.8
2018-01-28T11:22:24.694Z,72.94
2018-01-28T11:23:24.421Z,73.13
2018-01-28T11:24:24.463Z,73.13
2018-01-28T11:25:24.761Z,73.03
2018-01-28T11:26:24.780Z,73.03
2018-01-28T11:27:24.799Z,73.41
2018-01-28T11:28:24.815Z,73.13
2018-01-28T11:29:24.829Z,73.32
2018-01-28T11:30:24.531Z,72.75
2018-01-28T11:31:24.935Z,72.85
2018-01-28T11:32:24.557Z,73.13
2018-01-28T11:33:24.886Z,73.13
2018-01-28T11:34:24.907Z,72.85
2018-01-28T11:35:24.887Z,73.03
2018-01-28T11:36:24.899Z,72.94
2018-01-28T11:37:24.819Z,73.03
2018-01-28T11:38:24.654Z,73.03
2018-01-28T11:39:24.654Z,72.85
2018-01-28T11:40:25.008Z,72.85
2018-01-28T11:41:24.692Z,72.85
2018-01-28T11:42:24.980Z,72.85
2018-01-28T11:43:25.035Z,72.65
2018-01-28T11:44:25.007Z,72.56
2018-01-28T11:45:25.032Z,73.03
2018-01-28T11:46:25.077Z,72.56
2018-01-28T11:47:25.092Z,72.56
2018-01-28T11:48:25.097Z,73.13
2018-01-28T11:49:25.133Z,73.22
2018-01-28T11:50:25.109Z,73.13
2018-01-28T11:51:24.854Z,72.94
2018-01-28T11:52:25.124Z,73.03
2018-01-28T11:53:25.138Z,73.22
2018-01-28T11:54:25.188Z,73.32
2018-01-28T11:55:25.171Z,73.13
2018-01-28T11:56:24.936Z,73.22
2018-01-28T11:57:24.928Z,73.22
2018-01-28T11:58:24.953Z,73.22
2018-01-28T11:59:24.948Z,73.32
2018-01-28T12:00:25.252Z,73.03
2018-01-28T12:01:25.287Z,72.94
2018-01-28T12:02:25.294Z,72.94
2018-01-28T12:03:25.037Z,73.03
2018-01-28T12:04:25.329Z,72.75
2018-01-28T12:05:25.063Z,73.41
2018-01-28T12:06:25.371Z,73.22
2018-01-28T12:07:25.064Z,73.61
2018-01-28T12:08:25.098Z,73.03
2018-01-28T12:09:25.129Z,73.8
2018-01-28T12:10:25.107Z,72.85
2018-01-28T12:11:25.143Z,73.03
2018-01-28T12:12:25.145Z,73.32
2018-01-28T12:13:25.175Z,72.65
2018-01-28T12:14:25.442Z,73.03
2018-01-28T12:15:25.472Z,73.13
2018-01-28T12:16:25.224Z,73.32
2018-01-28T12:17:25.536Z,73.32
2018-01-28T12:18:25.509Z,73.41
2018-01-28T12:19:25.560Z,72.94
2018-01-28T12:20:25.251Z,72.65
2018-01-28T12:21:25.590Z,72.65
2018-01-28T12:22:25.572Z,72.65
2018-01-28T12:23:25.609Z,73.03
2018-01-28T12:24:25.331Z,73.32
2018-01-28T12:25:25.635Z,73.03
2018-01-28T12:26:25.629Z,72.46
2018-01-28T12:27:25.388Z,73.03
2018-01-28T12:28:25.700Z,72.85
2018-01-28T12:29:25.384Z,72.75
2018-01-28T12:30:25.398Z,73.22
2018-01-28T12:31:25.708Z,73.13
2018-01-28T12:32:25.740Z,73.32
2018-01-28T12:33:25.463Z,73.13
2018-01-28T12:34:25.767Z,73.41
2018-01-28T12:35:25.751Z,72.75
2018-01-28T12:36:25.505Z,73.41
2018-01-28T12:37:25.520Z,73.32
2018-01-28T12:38:25.538Z,72.65
2018-01-28T12:39:25.809Z,72.94
2018-01-28T12:40:25.565Z,72.65
2018-01-28T12:41:25.558Z,72.94
2018-01-28T12:42:25.634Z,72.85
2018-01-28T12:43:25.900Z,72.65
2018-01-28T12:44:25.915Z,72.94
2018-01-28T12:45:25.897Z,73.03
2018-01-28T12:46:25.632Z,73.03
2018-01-28T12:47:25.970Z,73.13
2018-01-28T12:48:25.659Z,73.22
2018-01-28T12:49:25.962Z,73.13
2018-01-28T12:50:25.981Z,73.13
2018-01-28T12:51:25.724Z,72.85
2018-01-28T12:52:26.189Z,73.32
2018-01-28T12:53:25.734Z,73.22
2018-01-28T12:54:26.069Z,73.03
2018-01-28T12:55:26.075Z,72.85